sensor_id;sensor_type;location;lat;lon;timestamp;pressure;altitude;pressure_sealevel;temperature;humidity
34073;BME280;20346;52.702;16.886;2023-04-28T01:33:19;101381.16;;;1.74;48.89
34073;BME280;20346;52.702;16.886;2023-04-28T01:39:17;101377.27;;;1.69;49.03
34073;BME280;20346;52.702;16.886;2023-04-28T03:34:46;101369.01;;;0.85;50.61
34073;BME280;20346;52.702;16.886;2023-04-28T03:52:46;101376.15;;;0.80;50.98
34073;BME280;20346;52.702;16.886;2023-04-28T10:27:03;101105.73;;;14.26;28.31
34073;BME280;20346;52.702;16.886;2023-04-28T11:58:39;101005.71;;;14.52;31.73
34073;BME280;20346;52.702;16.886;2023-04-28T18:24:56;100671.69;;;13.15;39.78
34073;BME280;20346;52.702;16.886;2023-04-28T18:28:45;100674.48;;;13.07;40.02
34073;BME280;20346;52.702;16.886;2023-04-28T18:32:32;100677.09;;;13.00;40.20
34073;BME280;20346;52.702;16.886;2023-04-28T18:36:19;100674.83;;;12.95;40.14
34073;BME280;20346;52.702;16.886;2023-04-28T18:40:05;100677.83;;;12.92;40.38
34073;BME280;20346;52.702;16.886;2023-04-28T18:43:58;100679.63;;;12.89;40.46
34073;BME280;20346;52.702;16.886;2023-04-28T18:47:47;100680.45;;;12.84;40.54
34073;BME280;20346;52.702;16.886;2023-04-28T18:51:34;100681.57;;;12.80;40.67
34073;BME280;20346;52.702;16.886;2023-04-28T18:55:24;100677.31;;;12.78;40.83
34073;BME280;20346;52.702;16.886;2023-04-28T18:59:13;100677.21;;;12.74;40.91
34073;BME280;20346;52.702;16.886;2023-04-28T19:03:03;100674.02;;;12.71;40.95
34073;BME280;20346;52.702;16.886;2023-04-28T19:06:56;100673.87;;;12.70;41.11
34073;BME280;20346;52.702;16.886;2023-04-28T19:10:34;100672.99;;;12.70;41.13
34073;BME280;20346;52.702;16.886;2023-04-28T19:14:21;100672.98;;;12.71;41.18
34073;BME280;20346;52.702;16.886;2023-04-28T19:18:08;100669.55;;;12.70;41.27
34073;BME280;20346;52.702;16.886;2023-04-28T19:22:16;100672.31;;;12.70;41.44
34073;BME280;20346;52.702;16.886;2023-04-28T19:48:04;100663.94;;;12.50;41.98
34073;BME280;20346;52.702;16.886;2023-04-28T19:51:50;100662.41;;;12.49;42.05
34073;BME280;20346;52.702;16.886;2023-04-28T19:59:33;100663.59;;;12.45;42.28
34073;BME280;20346;52.702;16.886;2023-04-28T20:03:14;100664.84;;;12.43;42.36
34073;BME280;20346;52.702;16.886;2023-04-28T20:06:58;100661.48;;;12.39;42.37
34073;BME280;20346;52.702;16.886;2023-04-28T20:10:45;100658.55;;;12.38;42.47
34073;BME280;20346;52.702;16.886;2023-04-28T20:14:32;100653.41;;;12.36;42.49
34073;BME280;20346;52.702;16.886;2023-04-28T20:18:18;100653.98;;;12.34;42.85
34073;BME280;20346;52.702;16.886;2023-04-28T20:22:05;100649.02;;;12.31;42.67
34073;BME280;20346;52.702;16.886;2023-04-28T20:25:52;100652.34;;;12.30;42.65
34073;BME280;20346;52.702;16.886;2023-04-28T20:29:39;100652.73;;;12.27;42.80
34073;BME280;20346;52.702;16.886;2023-04-28T20:33:27;100653.64;;;12.26;42.86
34073;BME280;20346;52.702;16.886;2023-04-28T20:37:16;100655.54;;;12.26;42.93
34073;BME280;20346;52.702;16.886;2023-04-28T20:41:03;100650.56;;;12.24;42.96
34073;BME280;20346;52.702;16.886;2023-04-28T20:44:49;100650.75;;;12.23;43.00
34073;BME280;20346;52.702;16.886;2023-04-28T20:48:36;100645.58;;;12.23;43.13
34073;BME280;20346;52.702;16.886;2023-04-28T20:52:23;100643.02;;;12.22;43.28
34073;BME280;20346;52.702;16.886;2023-04-28T20:56:10;100646.52;;;12.19;43.22
34073;BME280;20346;52.702;16.886;2023-04-28T20:59:59;100643.12;;;12.17;43.37
34073;BME280;20346;52.702;16.886;2023-04-28T21:03:46;100636.92;;;12.16;43.47
34073;BME280;20346;52.702;16.886;2023-04-28T21:07:32;100630.36;;;12.16;43.50
34073;BME280;20346;52.702;16.886;2023-04-28T21:11:19;100631.05;;;12.16;43.64
34073;BME280;20346;52.702;16.886;2023-04-28T21:15:06;100628.81;;;12.15;43.79
34073;BME280;20346;52.702;16.886;2023-04-28T21:18:53;100626.43;;;12.14;43.80
34073;BME280;20346;52.702;16.886;2023-04-28T21:22:40;100624.42;;;12.11;43.91
34073;BME280;20346;52.702;16.886;2023-04-28T21:26:35;100622.86;;;12.11;43.91
34073;BME280;20346;52.702;16.886;2023-04-28T21:30:22;100620.13;;;12.10;44.06
34073;BME280;20346;52.702;16.886;2023-04-28T21:34:08;100614.45;;;12.09;44.09
34073;BME280;20346;52.702;16.886;2023-04-28T21:37:55;100607.38;;;12.08;44.01
34073;BME280;20346;52.702;16.886;2023-04-28T21:41:42;100610.88;;;12.06;44.24
34073;BME280;20346;52.702;16.886;2023-04-28T21:45:29;100605.23;;;12.04;44.26
34073;BME280;20346;52.702;16.886;2023-04-28T21:49:16;100603.88;;;12.02;44.34
34073;BME280;20346;52.702;16.886;2023-04-28T21:53:02;100605.29;;;12.01;44.51
34073;BME280;20346;52.702;16.886;2023-04-28T21:56:49;100602.79;;;11.97;44.58
34073;BME280;20346;52.702;16.886;2023-04-28T22:00:40;100599.00;;;11.89;44.42
34073;BME280;20346;52.702;16.886;2023-04-28T22:04:29;100594.63;;;11.84;44.51
34073;BME280;20346;52.702;16.886;2023-04-28T22:08:16;100593.63;;;11.82;44.55
34073;BME280;20346;52.702;16.886;2023-04-28T22:12:02;100596.11;;;11.79;44.70
34073;BME280;20346;52.702;16.886;2023-04-28T22:15:49;100592.73;;;11.75;44.78
34073;BME280;20346;52.702;16.886;2023-04-28T22:19:36;100588.66;;;11.71;44.85
34073;BME280;20346;52.702;16.886;2023-04-28T22:23:29;100592.53;;;11.67;44.98
34073;BME280;20346;52.702;16.886;2023-04-28T22:27:16;100587.77;;;11.64;45.07
34073;BME280;20346;52.702;16.886;2023-04-28T22:31:05;100582.52;;;11.59;45.16
34073;BME280;20346;52.702;16.886;2023-04-28T22:34:52;100573.58;;;11.57;45.09
34073;BME280;20346;52.702;16.886;2023-04-28T22:38:38;100567.52;;;11.57;45.20
34073;BME280;20346;52.702;16.886;2023-04-28T22:42:28;100561.19;;;11.55;45.15
34073;BME280;20346;52.702;16.886;2023-04-28T22:46:15;100554.66;;;11.53;45.29
34073;BME280;20346;52.702;16.886;2023-04-28T22:50:01;100556.25;;;11.51;45.30
34073;BME280;20346;52.702;16.886;2023-04-28T22:53:48;100550.61;;;11.48;45.40
34073;BME280;20346;52.702;16.886;2023-04-28T22:57:35;100546.70;;;11.46;45.28
34073;BME280;20346;52.702;16.886;2023-04-28T23:01:22;100551.99;;;11.42;45.42
34073;BME280;20346;52.702;16.886;2023-04-28T23:05:10;100550.33;;;11.39;45.54
34073;BME280;20346;52.702;16.886;2023-04-28T23:08:57;100544.04;;;11.34;45.63
34073;BME280;20346;52.702;16.886;2023-04-28T23:12:43;100539.88;;;11.27;45.67
34073;BME280;20346;52.702;16.886;2023-04-28T23:16:30;100533.94;;;11.21;45.69
34073;BME280;20346;52.702;16.886;2023-04-28T23:20:17;100531.01;;;11.21;45.80
34073;BME280;20346;52.702;16.886;2023-04-28T23:24:04;100529.46;;;11.21;45.89
34073;BME280;20346;52.702;16.886;2023-04-28T23:27:51;100529.20;;;11.16;45.99
34073;BME280;20346;52.702;16.886;2023-04-28T23:31:37;100518.89;;;11.15;45.97
34073;BME280;20346;52.702;16.886;2023-04-28T23:35:25;100513.70;;;11.15;46.02
34073;BME280;20346;52.702;16.886;2023-04-28T23:41:04;100510.66;;;11.12;46.03
34073;BME280;20346;52.702;16.886;2023-04-28T23:44:51;100506.58;;;11.09;46.28
34073;BME280;20346;52.702;16.886;2023-04-28T23:48:39;100499.45;;;11.03;46.31
34073;BME280;20346;52.702;16.886;2023-04-28T23:52:33;100498.69;;;10.98;46.30
34073;BME280;20346;52.702;16.886;2023-04-28T23:56:19;100491.38;;;10.93;46.44
